ADDS METAR Data INFO
IDs: Format: Raw Decoded Include TAF

Data at: 1608 UTC 19 Oct 2017

KSPS 191552Z 19012KT 10SM BKN250 21/11 A3015 RMK AO2 SLP201 T02060106
KSPS 191452Z 16008KT 10SM BKN250 17/09 A3015 RMK AO2 SLP204 T01670094 53016
KSPS 191352Z 16007KT 10SM BKN250 13/09 A3013 RMK AO2 SLP197 T01330089
KSPS 191252Z 17006KT 10SM BKN250 11/08 A3011 RMK AO2 SLP189 T01110078
KSPS 191152Z 15006KT 10SM CLR 10/07 A3010 RMK AO2 SLP187 T01000067 10167 20100 53009
KSPS 191052Z 13005KT 10SM CLR 11/07 A3009 RMK AO2 SLP181 T01110072
KSPS 190952Z AUTO 13007KT 10SM CLR 12/07 A3008 RMK AO2 SLP177 T01170072
KSPS 190852Z AUTO 10003KT 10SM CLR 13/07 A3008 RMK AO2 SLP175 T01280072 51006
KSPS 190752Z AUTO 15005KT 10SM CLR 14/07 A3007 RMK AO2 SLP174 T01440072
KSPS 190652Z AUTO 15007KT 10SM CLR 16/07 A3007 RMK AO2 SLP172 T01560067
KSPS 190552Z AUTO 17010KT 10SM CLR 16/07 A3006 RMK AO2 SLP168 T01610067 10217 20150 402830078 50002
KSPS 190452Z AUTO 16009KT 10SM CLR 16/07 A3006 RMK AO2 SLP170 T01610072
KSPS 190352Z AUTO 15008KT 10SM CLR 16/08 A3006 RMK AO2 SLP171 T01610078
KSPS 190252Z AUTO 15006KT 10SM CLR 15/08 A3005 RMK AO2 SLP169 T01500083 51012
KSPS 190152Z AUTO 12008KT 10SM CLR 18/08 A3005 RMK AO2 SLP169 T01780083
KSPS 190052Z 12009KT 10SM CLR 19/09 A3003 RMK AO2 SLP164 T01890089
KSPS 182352Z 14009KT 10SM CLR 22/07 A3001 RMK AO2 SLP158 T02170072 10283 20217 53003
KSPS 182252Z 14008KT 10SM CLR 26/07 A3000 RMK AO2 SLP154 T02610072
KSPS 182152Z 17014G18KT 10SM CLR 27/08 A3000 RMK AO2 SLP151 T02720083
KSPS 182052Z 18016KT 10SM CLR 27/07 A3000 RMK AO2 SLP153 T02720072 56026
KSPS 181952Z 17015G21KT 10SM FEW250 27/06 A3002 RMK AO2 SLP157 T02670061
KSPS 181852Z 18016KT 10SM FEW250 27/07 A3006 RMK AO2 SLP169 T02670067
KSPS 181752Z 18010KT 10SM CLR 26/08 A3008 RMK AO2 SLP180 T02560083 10256 20078 58007
KSPS 181652Z 21012KT 10SM CLR 23/08 A3010 RMK AO2 SLP185 T02280078
KSPS 181552Z 18013G18KT 10SM CLR 20/08 A3011 RMK AO2 SLP190 T02000083
KSPS 181452Z 19011KT 10SM CLR 17/08 A3010 RMK AO2 SLP189 T01670078 53007
KSPS 181352Z 16007KT 10SM CLR 12/08 A3009 RMK AO2 SLP187 T01170078
KSPS 181252Z 16006KT 10SM FEW250 08/06 A3008 RMK AO2 SLP183 T00830061
KSPS 181152Z 15004KT 10SM CLR 09/06 A3008 RMK AO2 SLP182 T00890056 10122 20078 53003
KSPS 181052Z 13007KT 10SM CLR 08/06 A3008 RMK AO2 SLP178 T00830056
KSPS 180952Z 17005KT 10SM CLR 10/07 A3007 RMK AO2 SLP176 T01000067
KSPS 180852Z AUTO 17005KT 10SM CLR 09/06 A3007 RMK AO2 SLP177 T00940061 57009
KSPS 180752Z AUTO 13004KT 10SM CLR 11/06 A3009 RMK AO2 SLP181 T01060061
KSPS 180652Z AUTO 16009KT 10SM CLR 11/07 A3009 RMK AO2 SLP183 T01060067
KSPS 180552Z AUTO 16010KT 10SM CLR 11/07 A3010 RMK AO2 SLP186 T01110067 10183 20106 402500061 58003
KSPS 180452Z AUTO 16009KT 10SM CLR 13/07 A3011 RMK AO2 SLP190 T01280067